EGLL/LHR METAR and TAF weather

Enter ICAO airport designator
Station Type Date Time Source
EGLL METAR 2023/03/26 02:50 UTC NOAA

EGLL 260250Z AUTO 16007KT 8000 -RA FEW013/// SCT023/// BKN040/// //////TCU 08/07 Q1001


Station Type Date Time Source
EGLL Decoded METAR 2023/03/26 02:50 UTC NOAA

London / Heathrow Airport, United Kingdom (EGLL) 51-29N 000-27W 0M
Mar 25, 2023 - 10:50 PM EDT / 2023.03.26 0250 UTC
Wind: from the SSE (160 degrees) at 8 MPH (7 KT):0
Visibility: 4 mile(s):0
Sky conditions: mostly cloudy
Weather: light rain; Towering cumulus clouds observed
Temperature: 46 F (8 C)
Dew Point: 44 F (7 C)
Relative Humidity: 93%
Pressure (altimeter): 29.56 in. Hg (1001 hPa)
ob: EGLL 260250Z AUTO 16007KT 8000 -RA FEW013/// SCT023/// BKN040/// //////TCU 08/07 Q1001
cycle: 3

Station Type Date Time Source
EGLL TAF 2023/03/25 22:50 UTC NOAA

TAF
AMD EGLL 252226Z 2522/2624 14005KT 9999 SCT020
BECMG 2601/2603 -RA OVC011
TEMPO 2601/2612 6000 RA -RADZ BKN007 PROB40
TEMPO 2602/2610 4000 +RA RADZ
BECMG 2604/2607 02010KT
BECMG 2611/2614 NSW SCT035 PROB30
TEMPO 2611/2614 02015G25KT

Example: see airport list